sensor_id;sensor_type;location;lat;lon;timestamp;P1;durP1;ratioP1;P2;durP2;ratioP2
5149;SDS011;2593;52.466;13.436;2023-04-09T00:01:32;59.00;;;30.60;;
5149;SDS011;2593;52.466;13.436;2023-04-09T00:03:57;56.77;;;30.50;;
5149;SDS011;2593;52.466;13.436;2023-04-09T00:06:23;55.30;;;28.67;;
5149;SDS011;2593;52.466;13.436;2023-04-09T00:08:49;50.30;;;27.87;;
5149;SDS011;2593;52.466;13.436;2023-04-09T00:11:14;51.70;;;29.37;;
5149;SDS011;2593;52.466;13.436;2023-04-09T00:13:40;48.93;;;27.57;;
5149;SDS011;2593;52.466;13.436;2023-04-09T00:16:06;59.13;;;30.50;;
5149;SDS011;2593;52.466;13.436;2023-04-09T00:18:32;54.20;;;29.97;;
5149;SDS011;2593;52.466;13.436;2023-04-09T00:20:58;61.57;;;29.67;;
5149;SDS011;2593;52.466;13.436;2023-04-09T00:23:23;62.20;;;30.80;;
5149;SDS011;2593;52.466;13.436;2023-04-09T00:25:49;60.00;;;30.90;;
5149;SDS011;2593;52.466;13.436;2023-04-09T00:28:15;55.10;;;29.03;;
5149;SDS011;2593;52.466;13.436;2023-04-09T00:30:40;53.90;;;30.10;;
5149;SDS011;2593;52.466;13.436;2023-04-09T00:33:06;54.80;;;29.93;;
5149;SDS011;2593;52.466;13.436;2023-04-09T00:35:31;54.77;;;29.70;;
5149;SDS011;2593;52.466;13.436;2023-04-09T00:37:57;49.90;;;28.57;;
5149;SDS011;2593;52.466;13.436;2023-04-09T00:40:23;60.87;;;29.50;;
5149;SDS011;2593;52.466;13.436;2023-04-09T00:42:48;54.60;;;30.77;;
5149;SDS011;2593;52.466;13.436;2023-04-09T00:45:14;58.20;;;31.30;;
5149;SDS011;2593;52.466;13.436;2023-04-09T00:47:40;48.80;;;28.17;;
5149;SDS011;2593;52.466;13.436;2023-04-09T00:50:07;47.57;;;26.80;;
5149;SDS011;2593;52.466;13.436;2023-04-09T00:52:33;53.53;;;28.50;;
5149;SDS011;2593;52.466;13.436;2023-04-09T00:54:59;51.20;;;28.60;;
5149;SDS011;2593;52.466;13.436;2023-04-09T00:57:27;54.20;;;29.93;;
5149;SDS011;2593;52.466;13.436;2023-04-09T00:59:53;59.33;;;31.73;;
5149;SDS011;2593;52.466;13.436;2023-04-09T01:02:19;51.03;;;29.67;;
5149;SDS011;2593;52.466;13.436;2023-04-09T01:04:45;58.77;;;31.90;;
5149;SDS011;2593;52.466;13.436;2023-04-09T01:15:38;58.87;;;31.07;;
5149;SDS011;2593;52.466;13.436;2023-04-09T01:18:14;59.00;;;30.80;;
5149;SDS011;2593;52.466;13.436;2023-04-09T01:20:50;52.10;;;29.60;;
5149;SDS011;2593;52.466;13.436;2023-04-09T01:26:21;52.87;;;29.60;;
5149;SDS011;2593;52.466;13.436;2023-04-09T01:29:00;57.67;;;28.20;;
5149;SDS011;2593;52.466;13.436;2023-04-09T01:31:30;56.87;;;30.20;;
5149;SDS011;2593;52.466;13.436;2023-04-09T01:33:58;60.50;;;31.90;;
5149;SDS011;2593;52.466;13.436;2023-04-09T01:36:25;60.70;;;30.53;;
5149;SDS011;2593;52.466;13.436;2023-04-09T01:38:52;65.00;;;31.40;;
5149;SDS011;2593;52.466;13.436;2023-04-09T01:41:20;59.50;;;30.20;;
5149;SDS011;2593;52.466;13.436;2023-04-09T01:43:49;52.97;;;28.83;;
5149;SDS011;2593;52.466;13.436;2023-04-09T01:46:18;54.73;;;30.17;;
5149;SDS011;2593;52.466;13.436;2023-04-09T01:48:45;57.43;;;29.30;;
5149;SDS011;2593;52.466;13.436;2023-04-09T01:51:12;53.73;;;30.67;;
5149;SDS011;2593;52.466;13.436;2023-04-09T01:53:39;53.77;;;27.97;;
5149;SDS011;2593;52.466;13.436;2023-04-09T01:56:05;58.40;;;31.27;;
5149;SDS011;2593;52.466;13.436;2023-04-09T01:58:31;48.57;;;28.60;;
5149;SDS011;2593;52.466;13.436;2023-04-09T02:01:04;59.53;;;30.20;;
5149;SDS011;2593;52.466;13.436;2023-04-09T02:06:16;59.63;;;29.53;;
5149;SDS011;2593;52.466;13.436;2023-04-09T02:08:55;52.90;;;29.67;;
5149;SDS011;2593;52.466;13.436;2023-04-09T02:11:24;56.00;;;29.70;;
5149;SDS011;2593;52.466;13.436;2023-04-09T02:13:52;62.87;;;33.00;;
5149;SDS011;2593;52.466;13.436;2023-04-09T02:16:19;62.47;;;31.33;;
5149;SDS011;2593;52.466;13.436;2023-04-09T02:18:48;55.47;;;29.80;;
5149;SDS011;2593;52.466;13.436;2023-04-09T02:21:26;48.17;;;27.97;;
5149;SDS011;2593;52.466;13.436;2023-04-09T02:23:52;58.27;;;29.80;;
5149;SDS011;2593;52.466;13.436;2023-04-09T02:26:19;50.20;;;28.70;;
5149;SDS011;2593;52.466;13.436;2023-04-09T02:28:46;55.63;;;29.53;;
5149;SDS011;2593;52.466;13.436;2023-04-09T02:31:11;58.90;;;28.10;;
5149;SDS011;2593;52.466;13.436;2023-04-09T02:33:37;53.10;;;28.63;;
5149;SDS011;2593;52.466;13.436;2023-04-09T02:36:03;52.57;;;30.27;;
5149;SDS011;2593;52.466;13.436;2023-04-09T02:38:30;55.30;;;28.83;;
5149;SDS011;2593;52.466;13.436;2023-04-09T02:40:55;55.33;;;28.73;;
5149;SDS011;2593;52.466;13.436;2023-04-09T02:43:21;49.70;;;28.23;;
5149;SDS011;2593;52.466;13.436;2023-04-09T02:45:47;52.60;;;28.67;;
5149;SDS011;2593;52.466;13.436;2023-04-09T02:48:12;57.13;;;29.60;;
5149;SDS011;2593;52.466;13.436;2023-04-09T02:50:38;52.40;;;27.73;;
5149;SDS011;2593;52.466;13.436;2023-04-09T02:53:03;50.77;;;28.60;;
5149;SDS011;2593;52.466;13.436;2023-04-09T02:55:29;53.43;;;28.17;;
5149;SDS011;2593;52.466;13.436;2023-04-09T02:57:55;61.30;;;30.63;;
5149;SDS011;2593;52.466;13.436;2023-04-09T03:00:20;55.07;;;28.40;;
5149;SDS011;2593;52.466;13.436;2023-04-09T03:02:46;60.07;;;29.20;;
5149;SDS011;2593;52.466;13.436;2023-04-09T03:05:12;54.17;;;30.57;;
5149;SDS011;2593;52.466;13.436;2023-04-09T03:07:37;62.60;;;31.40;;
5149;SDS011;2593;52.466;13.436;2023-04-09T03:10:03;56.10;;;31.10;;
5149;SDS011;2593;52.466;13.436;2023-04-09T03:12:29;46.13;;;27.30;;
5149;SDS011;2593;52.466;13.436;2023-04-09T03:14:54;56.23;;;31.27;;
5149;SDS011;2593;52.466;13.436;2023-04-09T03:17:20;64.30;;;32.73;;
5149;SDS011;2593;52.466;13.436;2023-04-09T03:19:48;57.13;;;29.20;;
5149;SDS011;2593;52.466;13.436;2023-04-09T03:22:14;53.10;;;29.03;;
5149;SDS011;2593;52.466;13.436;2023-04-09T03:24:39;51.80;;;29.60;;
5149;SDS011;2593;52.466;13.436;2023-04-09T03:27:05;57.47;;;29.50;;
5149;SDS011;2593;52.466;13.436;2023-04-09T03:29:31;53.73;;;28.80;;
5149;SDS011;2593;52.466;13.436;2023-04-09T03:31:56;55.13;;;29.87;;
5149;SDS011;2593;52.466;13.436;2023-04-09T03:34:22;59.00;;;32.37;;
5149;SDS011;2593;52.466;13.436;2023-04-09T03:36:48;53.40;;;29.67;;
5149;SDS011;2593;52.466;13.436;2023-04-09T03:39:14;55.60;;;29.80;;
5149;SDS011;2593;52.466;13.436;2023-04-09T03:41:39;53.67;;;29.00;;
5149;SDS011;2593;52.466;13.436;2023-04-09T03:44:05;59.10;;;30.00;;
5149;SDS011;2593;52.466;13.436;2023-04-09T03:46:31;54.60;;;29.43;;
5149;SDS011;2593;52.466;13.436;2023-04-09T03:48:56;57.63;;;30.20;;
5149;SDS011;2593;52.466;13.436;2023-04-09T03:51:22;54.77;;;28.57;;
5149;SDS011;2593;52.466;13.436;2023-04-09T03:53:47;58.37;;;27.10;;
5149;SDS011;2593;52.466;13.436;2023-04-09T03:56:13;51.00;;;27.87;;
5149;SDS011;2593;52.466;13.436;2023-04-09T03:58:38;55.50;;;30.47;;
5149;SDS011;2593;52.466;13.436;2023-04-09T04:01:04;54.20;;;28.40;;
5149;SDS011;2593;52.466;13.436;2023-04-09T04:03:30;59.27;;;27.97;;
5149;SDS011;2593;52.466;13.436;2023-04-09T04:05:59;45.33;;;26.70;;
5149;SDS011;2593;52.466;13.436;2023-04-09T04:08:29;60.13;;;29.67;;
5149;SDS011;2593;52.466;13.436;2023-04-09T04:10:54;48.63;;;26.63;;
5149;SDS011;2593;52.466;13.436;2023-04-09T04:13:20;50.43;;;27.10;;
5149;SDS011;2593;52.466;13.436;2023-04-09T04:15:46;51.57;;;29.77;;
5149;SDS011;2593;52.466;13.436;2023-04-09T04:18:12;47.43;;;27.40;;
5149;SDS011;2593;52.466;13.436;2023-04-09T04:20:37;53.33;;;27.33;;
5149;SDS011;2593;52.466;13.436;2023-04-09T04:23:03;55.37;;;29.00;;
5149;SDS011;2593;52.466;13.436;2023-04-09T04:25:29;51.03;;;27.70;;
5149;SDS011;2593;52.466;13.436;2023-04-09T04:27:55;71.20;;;32.70;;
5149;SDS011;2593;52.466;13.436;2023-04-09T04:30:22;56.50;;;29.30;;
5149;SDS011;2593;52.466;13.436;2023-04-09T04:32:48;57.33;;;31.20;;
5149;SDS011;2593;52.466;13.436;2023-04-09T04:35:14;62.83;;;31.73;;
5149;SDS011;2593;52.466;13.436;2023-04-09T04:37:40;55.20;;;29.13;;
5149;SDS011;2593;52.466;13.436;2023-04-09T04:40:06;64.80;;;30.40;;
5149;SDS011;2593;52.466;13.436;2023-04-09T04:42:32;58.50;;;31.40;;
5149;SDS011;2593;52.466;13.436;2023-04-09T04:44:58;62.10;;;30.20;;
5149;SDS011;2593;52.466;13.436;2023-04-09T04:47:24;59.93;;;31.73;;
5149;SDS011;2593;52.466;13.436;2023-04-09T04:49:50;62.43;;;31.60;;
5149;SDS011;2593;52.466;13.436;2023-04-09T04:52:16;54.00;;;29.50;;
5149;SDS011;2593;52.466;13.436;2023-04-09T04:54:42;58.70;;;31.00;;
5149;SDS011;2593;52.466;13.436;2023-04-09T04:57:07;57.07;;;31.10;;
5149;SDS011;2593;52.466;13.436;2023-04-09T04:59:35;56.03;;;30.30;;
5149;SDS011;2593;52.466;13.436;2023-04-09T05:02:03;57.57;;;29.80;;
5149;SDS011;2593;52.466;13.436;2023-04-09T05:04:29;58.80;;;30.00;;
5149;SDS011;2593;52.466;13.436;2023-04-09T05:06:55;58.03;;;29.60;;
5149;SDS011;2593;52.466;13.436;2023-04-09T05:09:21;57.67;;;28.60;;
5149;SDS011;2593;52.466;13.436;2023-04-09T05:11:46;62.13;;;31.57;;
5149;SDS011;2593;52.466;13.436;2023-04-09T05:14:12;59.20;;;31.57;;
5149;SDS011;2593;52.466;13.436;2023-04-09T05:16:38;57.80;;;29.70;;
5149;SDS011;2593;52.466;13.436;2023-04-09T05:19:04;70.60;;;30.47;;
5149;SDS011;2593;52.466;13.436;2023-04-09T05:21:29;70.57;;;33.07;;
5149;SDS011;2593;52.466;13.436;2023-04-09T05:23:55;63.50;;;32.00;;
5149;SDS011;2593;52.466;13.436;2023-04-09T05:26:21;61.37;;;30.50;;
5149;SDS011;2593;52.466;13.436;2023-04-09T05:28:47;65.80;;;31.20;;
5149;SDS011;2593;52.466;13.436;2023-04-09T05:31:13;77.87;;;32.30;;
5149;SDS011;2593;52.466;13.436;2023-04-09T05:33:39;70.90;;;32.80;;
5149;SDS011;2593;52.466;13.436;2023-04-09T05:36:05;65.67;;;30.40;;
5149;SDS011;2593;52.466;13.436;2023-04-09T05:38:31;64.73;;;30.13;;
5149;SDS011;2593;52.466;13.436;2023-04-09T05:40:57;61.37;;;30.77;;
5149;SDS011;2593;52.466;13.436;2023-04-09T05:43:23;74.20;;;33.87;;
5149;SDS011;2593;52.466;13.436;2023-04-09T05:45:48;66.67;;;29.17;;
5149;SDS011;2593;52.466;13.436;2023-04-09T05:48:14;74.77;;;30.70;;
5149;SDS011;2593;52.466;13.436;2023-04-09T05:50:41;62.13;;;32.77;;
5149;SDS011;2593;52.466;13.436;2023-04-09T05:53:06;68.33;;;32.10;;
5149;SDS011;2593;52.466;13.436;2023-04-09T05:55:32;71.80;;;31.40;;
5149;SDS011;2593;52.466;13.436;2023-04-09T05:57:58;61.90;;;29.20;;
5149;SDS011;2593;52.466;13.436;2023-04-09T06:00:24;57.70;;;30.50;;
5149;SDS011;2593;52.466;13.436;2023-04-09T06:02:50;57.13;;;29.47;;
5149;SDS011;2593;52.466;13.436;2023-04-09T06:05:15;57.97;;;28.43;;
5149;SDS011;2593;52.466;13.436;2023-04-09T06:07:41;57.87;;;29.40;;
5149;SDS011;2593;52.466;13.436;2023-04-09T06:10:07;71.77;;;33.20;;
5149;SDS011;2593;52.466;13.436;2023-04-09T06:12:33;68.67;;;32.40;;
5149;SDS011;2593;52.466;13.436;2023-04-09T06:14:59;64.93;;;31.80;;
5149;SDS011;2593;52.466;13.436;2023-04-09T06:17:24;63.97;;;31.10;;
5149;SDS011;2593;52.466;13.436;2023-04-09T06:19:50;59.40;;;31.50;;
5149;SDS011;2593;52.466;13.436;2023-04-09T06:22:16;71.73;;;33.80;;
5149;SDS011;2593;52.466;13.436;2023-04-09T06:24:41;65.43;;;32.57;;
5149;SDS011;2593;52.466;13.436;2023-04-09T06:27:07;58.53;;;31.47;;
5149;SDS011;2593;52.466;13.436;2023-04-09T06:29:32;67.47;;;32.80;;
5149;SDS011;2593;52.466;13.436;2023-04-09T06:31:58;66.47;;;32.07;;
5149;SDS011;2593;52.466;13.436;2023-04-09T06:34:24;69.53;;;33.50;;
5149;SDS011;2593;52.466;13.436;2023-04-09T06:36:50;72.13;;;31.90;;
5149;SDS011;2593;52.466;13.436;2023-04-09T06:39:15;64.20;;;33.17;;
5149;SDS011;2593;52.466;13.436;2023-04-09T06:41:41;75.97;;;36.00;;
5149;SDS011;2593;52.466;13.436;2023-04-09T06:44:06;70.00;;;32.73;;
5149;SDS011;2593;52.466;13.436;2023-04-09T06:46:32;64.23;;;31.50;;
5149;SDS011;2593;52.466;13.436;2023-04-09T06:48:58;64.80;;;32.90;;
5149;SDS011;2593;52.466;13.436;2023-04-09T06:51:23;64.40;;;33.33;;
5149;SDS011;2593;52.466;13.436;2023-04-09T06:53:49;64.17;;;32.63;;
5149;SDS011;2593;52.466;13.436;2023-04-09T06:56:14;66.40;;;35.10;;
5149;SDS011;2593;52.466;13.436;2023-04-09T06:58:40;63.63;;;33.37;;
5149;SDS011;2593;52.466;13.436;2023-04-09T07:01:06;64.93;;;32.83;;
5149;SDS011;2593;52.466;13.436;2023-04-09T07:03:31;59.27;;;31.60;;
5149;SDS011;2593;52.466;13.436;2023-04-09T07:05:57;61.90;;;34.17;;
5149;SDS011;2593;52.466;13.436;2023-04-09T07:08:23;63.73;;;33.50;;
5149;SDS011;2593;52.466;13.436;2023-04-09T07:10:49;64.83;;;33.33;;
5149;SDS011;2593;52.466;13.436;2023-04-09T07:13:14;64.93;;;34.20;;
5149;SDS011;2593;52.466;13.436;2023-04-09T07:15:40;69.63;;;36.13;;
5149;SDS011;2593;52.466;13.436;2023-04-09T07:18:06;65.23;;;34.80;;
5149;SDS011;2593;52.466;13.436;2023-04-09T07:20:32;66.67;;;33.73;;
5149;SDS011;2593;52.466;13.436;2023-04-09T07:22:58;62.03;;;35.50;;
5149;SDS011;2593;52.466;13.436;2023-04-09T07:25:24;69.07;;;36.67;;
5149;SDS011;2593;52.466;13.436;2023-04-09T07:27:50;63.80;;;32.30;;
5149;SDS011;2593;52.466;13.436;2023-04-09T07:30:15;60.53;;;34.53;;
5149;SDS011;2593;52.466;13.436;2023-04-09T07:32:41;59.40;;;32.40;;
5149;SDS011;2593;52.466;13.436;2023-04-09T07:35:07;57.17;;;31.97;;
5149;SDS011;2593;52.466;13.436;2023-04-09T07:37:34;70.83;;;37.27;;
5149;SDS011;2593;52.466;13.436;2023-04-09T07:40:00;62.90;;;34.00;;
5149;SDS011;2593;52.466;13.436;2023-04-09T07:42:27;70.57;;;34.10;;
5149;SDS011;2593;52.466;13.436;2023-04-09T07:44:52;60.53;;;35.97;;
5149;SDS011;2593;52.466;13.436;2023-04-09T07:47:18;61.60;;;34.63;;
5149;SDS011;2593;52.466;13.436;2023-04-09T07:49:44;59.43;;;36.17;;
5149;SDS011;2593;52.466;13.436;2023-04-09T07:52:10;51.20;;;31.23;;
5149;SDS011;2593;52.466;13.436;2023-04-09T07:54:35;58.37;;;34.70;;
5149;SDS011;2593;52.466;13.436;2023-04-09T07:57:01;50.80;;;32.53;;
5149;SDS011;2593;52.466;13.436;2023-04-09T07:59:27;50.83;;;32.13;;
5149;SDS011;2593;52.466;13.436;2023-04-09T08:01:53;50.30;;;31.73;;
5149;SDS011;2593;52.466;13.436;2023-04-09T08:04:19;47.23;;;28.10;;
5149;SDS011;2593;52.466;13.436;2023-04-09T08:06:45;42.63;;;27.33;;
5149;SDS011;2593;52.466;13.436;2023-04-09T08:09:14;44.10;;;29.70;;
5149;SDS011;2593;52.466;13.436;2023-04-09T08:11:43;41.60;;;28.63;;
5149;SDS011;2593;52.466;13.436;2023-04-09T08:14:10;37.07;;;26.27;;
5149;SDS011;2593;52.466;13.436;2023-04-09T08:16:41;44.20;;;28.90;;
5149;SDS011;2593;52.466;13.436;2023-04-09T08:19:07;40.25;;;26.63;;
5149;SDS011;2593;52.466;13.436;2023-04-09T08:21:37;34.40;;;26.35;;
5149;SDS011;2593;52.466;13.436;2023-04-09T08:24:07;34.15;;;25.45;;
5149;SDS011;2593;52.466;13.436;2023-04-09T08:26:35;32.50;;;21.70;;
5149;SDS011;2593;52.466;13.436;2023-04-09T08:29:04;32.58;;;24.83;;
5149;SDS011;2593;52.466;13.436;2023-04-09T08:31:30;31.17;;;24.63;;
5149;SDS011;2593;52.466;13.436;2023-04-09T08:33:55;36.15;;;24.83;;
5149;SDS011;2593;52.466;13.436;2023-04-09T08:36:21;32.67;;;23.35;;
5149;SDS011;2593;52.466;13.436;2023-04-09T08:38:47;31.40;;;24.20;;
5149;SDS011;2593;52.466;13.436;2023-04-09T08:41:19;29.05;;;23.90;;
5149;SDS011;2593;52.466;13.436;2023-04-09T08:43:50;29.42;;;24.38;;
5149;SDS011;2593;52.466;13.436;2023-04-09T08:46:19;31.63;;;23.00;;
5149;SDS011;2593;52.466;13.436;2023-04-09T08:48:46;36.05;;;26.05;;
5149;SDS011;2593;52.466;13.436;2023-04-09T08:51:16;32.63;;;23.73;;
5149;SDS011;2593;52.466;13.436;2023-04-09T08:53:54;35.38;;;25.63;;
5149;SDS011;2593;52.466;13.436;2023-04-09T08:56:20;33.25;;;25.98;;
5149;SDS011;2593;52.466;13.436;2023-04-09T08:58:46;34.75;;;25.92;;
5149;SDS011;2593;52.466;13.436;2023-04-09T09:01:23;37.17;;;27.35;;
5149;SDS011;2593;52.466;13.436;2023-04-09T09:06:24;37.03;;;26.77;;
5149;SDS011;2593;52.466;13.436;2023-04-09T09:09:09;32.80;;;23.30;;
5149;SDS011;2593;52.466;13.436;2023-04-09T09:11:36;32.72;;;23.10;;
5149;SDS011;2593;52.466;13.436;2023-04-09T09:14:04;34.35;;;26.77;;
5149;SDS011;2593;52.466;13.436;2023-04-09T09:16:32;28.88;;;22.75;;
5149;SDS011;2593;52.466;13.436;2023-04-09T09:19:02;27.23;;;21.60;;
5149;SDS011;2593;52.466;13.436;2023-04-09T09:21:28;28.73;;;22.23;;
5149;SDS011;2593;52.466;13.436;2023-04-09T09:23:54;30.10;;;22.85;;
5149;SDS011;2593;52.466;13.436;2023-04-09T09:26:21;27.75;;;21.90;;
5149;SDS011;2593;52.466;13.436;2023-04-09T09:28:54;28.55;;;23.75;;
5149;SDS011;2593;52.466;13.436;2023-04-09T09:31:24;26.70;;;22.85;;
5149;SDS011;2593;52.466;13.436;2023-04-09T09:33:50;27.92;;;23.90;;
5149;SDS011;2593;52.466;13.436;2023-04-09T09:36:32;26.83;;;21.80;;
5149;SDS011;2593;52.466;13.436;2023-04-09T09:38:59;28.25;;;22.98;;
5149;SDS011;2593;52.466;13.436;2023-04-09T09:41:29;25.38;;;22.15;;
5149;SDS011;2593;52.466;13.436;2023-04-09T09:43:55;25.30;;;21.08;;
5149;SDS011;2593;52.466;13.436;2023-04-09T09:46:21;23.85;;;21.35;;
5149;SDS011;2593;52.466;13.436;2023-04-09T09:48:48;27.52;;;22.48;;
5149;SDS011;2593;52.466;13.436;2023-04-09T09:51:14;28.13;;;20.85;;
5149;SDS011;2593;52.466;13.436;2023-04-09T09:53:42;29.40;;;22.80;;
5149;SDS011;2593;52.466;13.436;2023-04-09T09:56:13;28.13;;;23.15;;
5149;SDS011;2593;52.466;13.436;2023-04-09T09:58:44;26.35;;;17.98;;
5149;SDS011;2593;52.466;13.436;2023-04-09T10:01:16;29.75;;;24.40;;
5149;SDS011;2593;52.466;13.436;2023-04-09T10:03:45;28.15;;;24.13;;
5149;SDS011;2593;52.466;13.436;2023-04-09T10:06:13;29.17;;;23.60;;
5149;SDS011;2593;52.466;13.436;2023-04-09T10:08:41;26.33;;;22.70;;
5149;SDS011;2593;52.466;13.436;2023-04-09T10:11:07;33.70;;;25.70;;
5149;SDS011;2593;52.466;13.436;2023-04-09T10:13:34;29.10;;;23.67;;
5149;SDS011;2593;52.466;13.436;2023-04-09T10:16:03;28.88;;;22.58;;
5149;SDS011;2593;52.466;13.436;2023-04-09T10:18:31;28.70;;;21.40;;
5149;SDS011;2593;52.466;13.436;2023-04-09T10:21:11;26.70;;;21.73;;
5149;SDS011;2593;52.466;13.436;2023-04-09T10:23:59;27.65;;;21.13;;
5149;SDS011;2593;52.466;13.436;2023-04-09T10:26:31;27.42;;;21.83;;
5149;SDS011;2593;52.466;13.436;2023-04-09T10:34:18;27.95;;;22.17;;
5149;SDS011;2593;52.466;13.436;2023-04-09T10:36:50;31.88;;;23.60;;
5149;SDS011;2593;52.466;13.436;2023-04-09T10:39:17;35.33;;;24.55;;
5149;SDS011;2593;52.466;13.436;2023-04-09T10:41:43;35.40;;;25.27;;
5149;SDS011;2593;52.466;13.436;2023-04-09T10:44:20;37.60;;;26.43;;
5149;SDS011;2593;52.466;13.436;2023-04-09T10:46:48;43.30;;;26.47;;
5149;SDS011;2593;52.466;13.436;2023-04-09T10:51:40;51.53;;;29.67;;
5149;SDS011;2593;52.466;13.436;2023-04-09T10:57:09;44.00;;;28.10;;
5149;SDS011;2593;52.466;13.436;2023-04-09T10:59:35;44.77;;;27.13;;
5149;SDS011;2593;52.466;13.436;2023-04-09T11:08:09;48.53;;;25.90;;
5149;SDS011;2593;52.466;13.436;2023-04-09T11:10:43;47.33;;;28.70;;
5149;SDS011;2593;52.466;13.436;2023-04-09T11:13:14;43.03;;;26.10;;
5149;SDS011;2593;52.466;13.436;2023-04-09T11:15:42;46.20;;;26.27;;
5149;SDS011;2593;52.466;13.436;2023-04-09T11:18:08;48.90;;;26.40;;
5149;SDS011;2593;52.466;13.436;2023-04-09T11:20:39;54.47;;;30.20;;
5149;SDS011;2593;52.466;13.436;2023-04-09T11:23:05;46.50;;;25.93;;
5149;SDS011;2593;52.466;13.436;2023-04-09T11:25:32;50.33;;;26.23;;
5149;SDS011;2593;52.466;13.436;2023-04-09T11:27:58;45.60;;;25.07;;
5149;SDS011;2593;52.466;13.436;2023-04-09T11:30:26;41.73;;;24.87;;
5149;SDS011;2593;52.466;13.436;2023-04-09T11:32:52;44.20;;;25.23;;
5149;SDS011;2593;52.466;13.436;2023-04-09T11:35:19;40.10;;;23.60;;
5149;SDS011;2593;52.466;13.436;2023-04-09T11:37:46;41.10;;;24.60;;
5149;SDS011;2593;52.466;13.436;2023-04-09T11:40:19;40.50;;;24.47;;
5149;SDS011;2593;52.466;13.436;2023-04-09T11:42:50;42.20;;;23.97;;
5149;SDS011;2593;52.466;13.436;2023-04-09T11:45:17;46.67;;;26.30;;
5149;SDS011;2593;52.466;13.436;2023-04-09T11:47:44;37.43;;;22.27;;
5149;SDS011;2593;52.466;13.436;2023-04-09T11:50:11;44.10;;;24.63;;
5149;SDS011;2593;52.466;13.436;2023-04-09T11:52:38;44.87;;;23.10;;
5149;SDS011;2593;52.466;13.436;2023-04-09T11:55:05;52.20;;;28.93;;
5149;SDS011;2593;52.466;13.436;2023-04-09T12:00:07;41.53;;;24.23;;
5149;SDS011;2593;52.466;13.436;2023-04-09T12:02:45;45.23;;;23.60;;
5149;SDS011;2593;52.466;13.436;2023-04-09T12:05:22;43.70;;;24.43;;
5149;SDS011;2593;52.466;13.436;2023-04-09T12:07:49;44.30;;;25.60;;
5149;SDS011;2593;52.466;13.436;2023-04-09T12:10:16;40.77;;;23.40;;
5149;SDS011;2593;52.466;13.436;2023-04-09T12:12:42;46.20;;;24.47;;
5149;SDS011;2593;52.466;13.436;2023-04-09T12:15:19;42.50;;;24.37;;
5149;SDS011;2593;52.466;13.436;2023-04-09T12:17:47;42.00;;;22.73;;
5149;SDS011;2593;52.466;13.436;2023-04-09T12:20:33;42.10;;;23.50;;
5149;SDS011;2593;52.466;13.436;2023-04-09T12:23:08;40.87;;;23.07;;
5149;SDS011;2593;52.466;13.436;2023-04-09T12:25:35;39.30;;;22.27;;
5149;SDS011;2593;52.466;13.436;2023-04-09T12:28:06;43.73;;;23.80;;
5149;SDS011;2593;52.466;13.436;2023-04-09T12:30:33;39.77;;;22.60;;
5149;SDS011;2593;52.466;13.436;2023-04-09T12:32:59;41.70;;;22.87;;
5149;SDS011;2593;52.466;13.436;2023-04-09T12:35:25;43.60;;;20.00;;
5149;SDS011;2593;52.466;13.436;2023-04-09T12:37:51;41.83;;;20.80;;
5149;SDS011;2593;52.466;13.436;2023-04-09T12:40:17;35.63;;;20.57;;
5149;SDS011;2593;52.466;13.436;2023-04-09T12:42:44;43.47;;;22.80;;
5149;SDS011;2593;52.466;13.436;2023-04-09T12:45:11;44.53;;;23.13;;
5149;SDS011;2593;52.466;13.436;2023-04-09T12:47:41;42.77;;;22.57;;
5149;SDS011;2593;52.466;13.436;2023-04-09T12:50:07;43.00;;;23.63;;
5149;SDS011;2593;52.466;13.436;2023-04-09T12:52:34;39.83;;;22.77;;
5149;SDS011;2593;52.466;13.436;2023-04-09T12:55:00;42.10;;;23.27;;
5149;SDS011;2593;52.466;13.436;2023-04-09T12:57:26;34.00;;;20.37;;
5149;SDS011;2593;52.466;13.436;2023-04-09T12:59:52;37.20;;;22.47;;
5149;SDS011;2593;52.466;13.436;2023-04-09T13:02:18;42.77;;;23.10;;
5149;SDS011;2593;52.466;13.436;2023-04-09T13:04:45;39.77;;;22.57;;
5149;SDS011;2593;52.466;13.436;2023-04-09T13:07:11;37.13;;;21.00;;
5149;SDS011;2593;52.466;13.436;2023-04-09T13:09:39;37.23;;;22.67;;
5149;SDS011;2593;52.466;13.436;2023-04-09T13:12:05;41.13;;;22.30;;
5149;SDS011;2593;52.466;13.436;2023-04-09T13:14:31;36.70;;;21.83;;
5149;SDS011;2593;52.466;13.436;2023-04-09T13:16:57;34.80;;;20.90;;
5149;SDS011;2593;52.466;13.436;2023-04-09T13:19:23;44.83;;;22.50;;
5149;SDS011;2593;52.466;13.436;2023-04-09T13:21:48;36.97;;;21.37;;
5149;SDS011;2593;52.466;13.436;2023-04-09T13:24:14;38.33;;;22.63;;
5149;SDS011;2593;52.466;13.436;2023-04-09T13:26:39;37.30;;;21.43;;
5149;SDS011;2593;52.466;13.436;2023-04-09T13:29:06;40.10;;;23.83;;
5149;SDS011;2593;52.466;13.436;2023-04-09T13:31:33;39.20;;;20.73;;
5149;SDS011;2593;52.466;13.436;2023-04-09T13:34:00;38.47;;;21.27;;
5149;SDS011;2593;52.466;13.436;2023-04-09T13:36:27;43.70;;;22.70;;
5149;SDS011;2593;52.466;13.436;2023-04-09T13:38:53;34.80;;;20.40;;
5149;SDS011;2593;52.466;13.436;2023-04-09T13:41:19;38.93;;;21.20;;
5149;SDS011;2593;52.466;13.436;2023-04-09T13:43:51;36.07;;;19.47;;
5149;SDS011;2593;52.466;13.436;2023-04-09T13:46:17;30.57;;;18.60;;
5149;SDS011;2593;52.466;13.436;2023-04-09T13:48:42;35.17;;;20.00;;
5149;SDS011;2593;52.466;13.436;2023-04-09T13:51:08;36.63;;;19.30;;
5149;SDS011;2593;52.466;13.436;2023-04-09T13:53:34;35.00;;;19.27;;
5149;SDS011;2593;52.466;13.436;2023-04-09T13:56:00;32.30;;;18.93;;
5149;SDS011;2593;52.466;13.436;2023-04-09T13:58:25;31.47;;;19.30;;
5149;SDS011;2593;52.466;13.436;2023-04-09T14:00:51;28.50;;;17.27;;
5149;SDS011;2593;52.466;13.436;2023-04-09T14:03:17;36.20;;;19.33;;
5149;SDS011;2593;52.466;13.436;2023-04-09T14:05:42;28.20;;;17.07;;
5149;SDS011;2593;52.466;13.436;2023-04-09T14:08:08;30.13;;;17.60;;
5149;SDS011;2593;52.466;13.436;2023-04-09T14:10:34;23.43;;;14.90;;
5149;SDS011;2593;52.466;13.436;2023-04-09T14:13:00;27.77;;;16.20;;
5149;SDS011;2593;52.466;13.436;2023-04-09T14:15:30;26.90;;;15.17;;
5149;SDS011;2593;52.466;13.436;2023-04-09T14:17:56;34.40;;;17.10;;
5149;SDS011;2593;52.466;13.436;2023-04-09T14:20:22;28.43;;;15.80;;
5149;SDS011;2593;52.466;13.436;2023-04-09T14:22:48;30.00;;;18.40;;
5149;SDS011;2593;52.466;13.436;2023-04-09T14:25:14;29.43;;;18.60;;
5149;SDS011;2593;52.466;13.436;2023-04-09T14:27:40;36.43;;;19.40;;
5149;SDS011;2593;52.466;13.436;2023-04-09T14:30:07;33.50;;;18.27;;
5149;SDS011;2593;52.466;13.436;2023-04-09T14:32:33;32.80;;;19.00;;
5149;SDS011;2593;52.466;13.436;2023-04-09T14:34:59;30.43;;;17.87;;
5149;SDS011;2593;52.466;13.436;2023-04-09T14:37:25;32.40;;;18.20;;
5149;SDS011;2593;52.466;13.436;2023-04-09T14:39:51;36.47;;;19.30;;
5149;SDS011;2593;52.466;13.436;2023-04-09T14:42:17;31.70;;;18.20;;
5149;SDS011;2593;52.466;13.436;2023-04-09T14:44:43;40.33;;;21.10;;
5149;SDS011;2593;52.466;13.436;2023-04-09T14:47:10;37.83;;;20.60;;
5149;SDS011;2593;52.466;13.436;2023-04-09T14:49:35;41.50;;;20.90;;
5149;SDS011;2593;52.466;13.436;2023-04-09T14:52:01;38.07;;;20.70;;
5149;SDS011;2593;52.466;13.436;2023-04-09T14:54:26;36.00;;;19.33;;
5149;SDS011;2593;52.466;13.436;2023-04-09T14:56:54;40.83;;;22.13;;
5149;SDS011;2593;52.466;13.436;2023-04-09T14:59:22;38.20;;;20.10;;
5149;SDS011;2593;52.466;13.436;2023-04-09T15:01:48;36.13;;;18.70;;
5149;SDS011;2593;52.466;13.436;2023-04-09T15:04:13;33.27;;;19.93;;
5149;SDS011;2593;52.466;13.436;2023-04-09T15:06:39;31.37;;;19.27;;
5149;SDS011;2593;52.466;13.436;2023-04-09T15:09:05;31.20;;;17.57;;